Hovedside
METAR-TAF:

METAR-TAF

Lufthavner :

Port Bouet lufthavn

Abidjan, Elfenbenskysten

breddegrad: 05-15N, lengdegrad: 003-56W, høyde over havet: 7 m

Gjeldene værobservasjon

Denne rapporten ble laget for 33 minutter siden, klokken 04:30 UTC
Vind 6 kt fra Sør-sørvest
Temperatur 26°C
Luftfuktighet 94%
Trykk 1009 hPa
Sikt 10 km eller mer
Få skyer i en høyde av 1200 ft

METAR: DIAP 210430Z 20006KT 9999 FEW012 26/25 Q1009 NOSIG

Tid: 05:03 (05:03 UTC)

Varsel

Denne rapporten ble laget for 6 timer og 3 minutter siden, klokken 23:00 UTC
Varsel gyldig fra 21. klokken 00 UTC til 22. klokken 06 UTC
Vind 6 kt fra Sør-sørvest
Sikt 10 km eller mer
Spredte skyer i en høyde av 1200 ft
Midlertidig
fra 21. klokken 18 UTC til 21. klokken 24 UTC
Sikt: 4000 m
Brutte skyer i en høyde av 1200 ft
regn
Midlertidig
fra 22. klokken 00 UTC til 22. klokken 06 UTC
Sikt: 4000 m
Brutte skyer i en høyde av 1200 ft
regn

TAF: DIAP 202300Z 2100/2206 20006KT 9999 SCT012 TEMPO 2118/2124 4000 RA BKN012 TEMPO 2200/2206 4000 RA BKN012

Værobservasjoner og værvarsel for over 4000 flyplasser (METAR- og TAF-rapporter).

Tilgjengelige stasjoner er representert av de røde og gule prikkene på kartet.

Hold musepekeren over prikken for å se navnet på stasjonen.

Klikk så for å se værobservasjoner og -varsler.

For å forandre kartet kan du klikke på den grønne knappen med svart kryss for å zoome inn, på den grønne knappen med strek for å zoome ut, eller på de grønne pilene for å se tilstøtende kart.


METAR-TAF: